Time;durP1;ratioP1;P1;durP2;ratioP2;P2;SDS_P1;SDS_P2;PMS_P1;PMS_P2;Temp;Humidity;BMP_temperature;BMP_pressure;BME280_temperature;BME280_humidity;BME280_pressure;Samples;Min_cycle;Max_cycle;Signal;HPM_P1;HPM_P2
2023/10/18 00:01:02;;;;;;;;;;;10.80;63.20;;;6.03;100.00;95048.81;5013295;28;20000;-46
2023/10/18 00:03:32;;;;;;;;;;;10.80;63.40;;;6.02;100.00;95043.78;5013928;28;19917;-47
2023/10/18 00:06:12;;;;;;;;;;;10.80;63.40;;;6.03;100.00;95042.75;5012940;28;19920;-48
2023/10/18 00:08:41;;;;;;;;;;;10.80;63.40;;;6.00;100.00;95041.38;5023317;28;20450;-45
2023/10/18 00:11:07;;;;;;;;;;;10.70;63.30;;;6.02;100.00;95044.59;5014527;28;19916;-46
2023/10/18 00:13:34;;;;;;;;;;;10.80;63.40;;;6.00;100.00;95037.94;5013139;28;19913;-46
2023/10/18 00:16:03;;;;;;;;;;;10.70;63.40;;;6.01;100.00;95036.88;5008143;28;19913;-44
2023/10/18 00:18:28;;;;;;;;;;;10.70;63.40;;;6.01;100.00;95036.88;5013126;28;19952;-47
2023/10/18 00:21:06;;;;;;;;;;;10.80;63.60;;;6.01;100.00;95034.25;5014078;28;19955;-45
2023/10/18 00:23:33;;;;;;;;;;;10.70;63.50;;;6.01;100.00;95036.88;5013677;28;19909;-49
2023/10/18 00:26:09;;;;;;;;;;;10.80;63.60;;;6.02;100.00;95027.94;5012186;28;19909;-49
2023/10/18 00:28:38;;;;;;;;;;;10.80;63.60;;;6.02;100.00;95026.06;5013867;28;19912;-50
2023/10/18 00:31:20;;;;;;;;;;;10.80;63.70;;;6.02;100.00;95026.06;5013334;28;19915;-44
2023/10/18 00:33:46;;;;;;;;;;;10.80;63.70;;;6.00;100.00;95033.44;5013669;28;19909;-46
2023/10/18 00:36:16;;;;;;;;;;;10.80;63.80;;;6.01;100.00;95029.75;5012532;28;20425;-45
2023/10/18 00:38:44;;;;;;;;;;;10.80;63.80;;;6.01;100.00;95031.59;5013508;28;19920;-46
2023/10/18 00:41:14;;;;;;;;;;;10.80;63.70;;;5.99;100.00;95025.78;5013714;28;19924;-46
2023/10/18 00:43:45;;;;;;;;;;;10.80;63.80;;;6.00;100.00;95014.94;5012616;28;19955;-45
2023/10/18 00:46:15;;;;;;;;;;;10.80;64.60;;;6.00;100.00;95016.78;5013179;28;19909;-45
2023/10/18 00:48:42;;;;;;;;;;;10.80;63.90;;;5.96;100.00;95018.34;5011464;28;19912;-46
2023/10/18 00:51:09;;;;;;;;;;;10.70;63.80;;;5.96;100.00;95013.84;5013609;28;20383;-44
2023/10/18 00:53:38;;;;;;;;;;;10.80;63.80;;;5.98;100.00;95016.22;5012226;28;19958;-47
2023/10/18 00:56:04;;;;;;;;;;;10.70;63.80;;;6.00;100.00;95011.50;5011875;28;19943;-46
2023/10/18 00:58:32;;;;;;;;;;;10.80;63.90;;;6.01;100.00;95007.81;5013317;28;19913;-45
2023/10/18 01:01:06;;;;;;;;;;;10.80;63.90;;;6.02;100.00;95006.78;5012809;28;19940;-48
2023/10/18 01:03:38;;;;;;;;;;;10.80;63.90;;;6.00;100.00;95006.22;5013891;28;19909;-46
2023/10/18 01:06:20;;;;;;;;;;;10.80;63.80;;;6.02;100.00;95004.94;5012644;28;19915;-45
2023/10/18 01:08:47;;;;;;;;;;;10.80;63.90;;;6.05;100.00;94998.34;5013264;28;19916;-48
2023/10/18 01:11:15;;;;;;;;;;;10.80;63.90;;;6.00;100.00;95001.72;5013496;28;20379;-44
2023/10/18 01:13:43;;;;;;;;;;;10.80;63.80;;;6.02;100.00;94989.06;5012115;28;19913;-47
2023/10/18 01:16:14;;;;;;;;;;;10.80;63.80;;;6.03;100.00;94995.94;5012584;28;19920;-45
2023/10/18 01:18:47;;;;;;;;;;;10.80;63.80;;;6.04;100.00;94988.78;5011819;28;19916;-47
2023/10/18 01:21:17;;;;;;;;;;;10.80;63.90;;;6.02;100.00;94981.13;5011904;28;20011;-47
2023/10/18 01:23:51;;;;;;;;;;;10.80;63.80;;;6.02;100.00;94973.19;5012635;28;19909;-46
2023/10/18 01:26:21;;;;;;;;;;;10.80;63.90;;;6.05;100.00;94973.72;5012259;28;19909;-47
2023/10/18 01:28:48;;;;;;;;;;;10.80;63.80;;;6.07;100.00;94982.22;5012605;28;19915;-48
2023/10/18 01:31:14;;;;;;;;;;;10.80;63.90;;;6.07;100.00;94974.28;5005153;28;19968;-45
2023/10/18 01:33:45;;;;;;;;;;;10.80;63.90;;;6.07;100.00;94984.88;5012419;28;20367;-48
2023/10/18 01:36:16;;;;;;;;;;;10.80;63.80;;;6.01;100.00;94982.16;5010209;28;19982;-46
2023/10/18 01:38:52;;;;;;;;;;;10.80;63.80;;;6.04;100.00;94978.22;5012355;28;19920;-45
2023/10/18 01:41:37;;;;;;;;;;;10.80;63.80;;;6.04;100.00;94980.88;5012569;28;19908;-45
2023/10/18 01:44:08;;;;;;;;;;;10.80;63.90;;;6.06;100.00;94978.00;5008099;28;19916;-47
2023/10/18 01:46:45;;;;;;;;;;;10.80;63.80;;;6.03;100.00;94974.00;5012413;28;19909;-44
2023/10/18 01:49:16;;;;;;;;;;;10.80;63.90;;;6.00;100.00;94970.00;5011291;28;19940;-47
2023/10/18 01:51:46;;;;;;;;;;;10.80;63.80;;;6.03;100.00;94969.50;5012177;28;20012;-44
2023/10/18 01:54:15;;;;;;;;;;;10.80;63.80;;;6.00;100.00;94956.78;5011002;28;20757;-46
2023/10/18 01:56:46;;;;;;;;;;;10.80;63.80;;;5.93;100.00;94958.03;5011498;28;20393;-47
2023/10/18 01:59:14;;;;;;;;;;;10.80;63.80;;;5.98;100.00;94966.78;5012005;28;19909;-44
2023/10/18 02:01:44;;;;;;;;;;;10.80;63.80;;;6.02;100.00;94959.19;5009703;28;20402;-48
2023/10/18 02:04:22;;;;;;;;;;;10.80;63.80;;;5.98;100.00;94966.78;5011676;28;19999;-48
2023/10/18 02:06:57;;;;;;;;;;;10.80;63.80;;;6.03;100.00;94969.50;5011067;28;20268;-45
2023/10/18 02:09:27;;;;;;;;;;;10.80;63.80;;;6.05;100.00;94971.09;5007147;28;19909;-46
2023/10/18 02:11:53;;;;;;;;;;;10.80;63.90;;;6.10;100.00;94974.56;5011358;28;19916;-50
2023/10/18 02:14:19;;;;;;;;;;;10.80;63.80;;;6.11;100.00;94965.63;5006418;28;19913;-46
2023/10/18 02:16:45;;;;;;;;;;;10.80;63.80;;;6.10;100.00;94965.84;5009215;28;20015;-46
2023/10/18 02:19:13;;;;;;;;;;;10.80;63.80;;;6.09;100.00;94964.25;5010778;28;19909;-49
2023/10/18 02:21:41;;;;;;;;;;;10.80;63.80;;;6.12;100.00;94969.06;5011661;28;19909;-48
2023/10/18 02:24:11;;;;;;;;;;;10.80;63.80;;;6.10;100.00;94963.22;5010748;28;19954;-44
2023/10/18 02:26:44;;;;;;;;;;;10.90;63.80;;;6.13;100.00;94965.34;5026485;28;20271;-45
2023/10/18 02:29:12;;;;;;;;;;;10.80;63.80;;;6.15;100.00;94957.97;5011434;28;19919;-46
2023/10/18 02:31:41;;;;;;;;;;;10.90;63.90;;;6.14;100.00;94959.81;5010863;28;19909;-46
2023/10/18 02:34:09;;;;;;;;;;;10.90;64.00;;;6.15;100.00;94964.06;5011243;28;19909;-49
2023/10/18 02:36:40;;;;;;;;;;;10.90;64.00;;;6.18;100.00;94963.56;5008913;28;20299;-48
2023/10/18 02:39:10;;;;;;;;;;;10.90;64.00;;;6.13;100.00;94960.84;5026599;23;20377;-49
2023/10/18 02:41:41;;;;;;;;;;;10.90;64.00;;;6.13;100.00;94965.34;5010635;28;19935;-48
2023/10/18 02:44:15;;;;;;;;;;;10.90;64.00;;;6.12;100.00;94959.28;5009947;28;19909;-49
2023/10/18 02:46:45;;;;;;;;;;;10.90;64.00;;;6.13;100.00;94955.56;5008712;28;19932;-51
2023/10/18 02:49:11;;;;;;;;;;;10.90;64.00;;;6.17;100.00;94958.50;5014500;28;20347;-48
2023/10/18 02:51:37;;;;;;;;;;;10.90;64.00;;;6.19;100.00;94951.91;5026152;28;19963;-51
2023/10/18 02:56:51;;;;;;;;;;;10.90;64.00;;;6.09;100.00;94956.34;5029869;28;19944;-46
2023/10/18 02:59:23;;;;;;;;;;;10.90;64.00;;;6.01;100.00;94952.28;5015576;28;19943;-49
2023/10/18 03:01:50;;;;;;;;;;;10.90;63.90;;;6.02;100.00;94948.63;5020019;28;19909;-46
2023/10/18 03:04:18;;;;;;;;;;;10.90;63.90;;;5.93;100.00;94939.53;5025530;28;19912;-49
2023/10/18 03:06:47;;;;;;;;;;;10.90;64.70;;;5.97;100.00;94936.13;5016217;28;19909;-46
2023/10/18 03:12:03;;;;;;;;;;;10.90;64.00;;;6.05;100.00;94934.06;5022237;28;20000;-52
2023/10/18 03:17:19;;;;;;;;;;;10.80;63.90;;;6.08;100.00;94928.28;5015843;28;20334;-50
2023/10/18 03:19:50;;;;;;;;;;;10.90;64.00;;;6.01;100.00;94925.84;5020774;28;19966;-49
2023/10/18 03:22:20;;;;;;;;;;;10.90;64.00;;;5.96;100.00;94929.25;5025503;28;19920;-50
2023/10/18 03:24:53;;;;;;;;;;;10.90;64.10;;;6.06;100.00;94922.47;5021154;28;19908;-50
2023/10/18 03:27:18;;;;;;;;;;;10.90;64.10;;;6.07;100.00;94929.34;5022742;28;19916;-48
2023/10/18 03:29:45;;;;;;;;;;;10.90;64.10;;;6.12;100.00;94934.69;5025970;28;19913;-46
2023/10/18 03:32:19;;;;;;;;;;;10.90;64.10;;;6.14;100.00;94925.44;5022841;28;20016;-50
2023/10/18 03:34:46;;;;;;;;;;;10.90;64.10;;;6.11;100.00;94922.47;5015909;28;19916;-47
2023/10/18 03:37:27;;;;;;;;;;;10.90;64.10;;;6.07;100.00;94922.19;5023777;28;19916;-47
2023/10/18 03:39:53;;;;;;;;;;;10.90;64.00;;;6.10;100.00;94921.69;5016176;28;19967;-49
2023/10/18 03:42:30;;;;;;;;;;;10.90;64.10;;;5.98;100.00;94921.84;5026154;28;19912;-47
2023/10/18 03:45:01;;;;;;;;;;;10.90;64.00;;;6.13;100.00;94920.41;5015972;28;19948;-46
2023/10/18 03:47:36;;;;;;;;;;;10.90;64.00;;;6.20;100.00;94915.69;5023105;28;19936;-47
2023/10/18 03:50:07;;;;;;;;;;;11.00;64.10;;;6.23;100.00;94926.56;5016301;28;19909;-47
2023/10/18 03:52:33;;;;;;;;;;;11.00;64.20;;;6.22;100.00;94914.38;5022938;28;19912;-46
2023/10/18 03:55:10;;;;;;;;;;;11.00;64.10;;;6.23;100.00;94910.69;5022423;28;20325;-46
2023/10/18 03:57:39;;;;;;;;;;;11.00;64.10;;;6.25;100.00;94913.88;5024818;28;19958;-51
2023/10/18 04:02:52;;;;;;;;;;;11.10;64.10;;;6.29;100.00;94908.88;5026992;28;20268;-46
2023/10/18 04:05:35;;;;;;;;;;;11.10;64.10;;;6.25;100.00;94905.94;5023649;28;19913;-46
2023/10/18 04:08:04;;;;;;;;;;;11.00;64.10;;;6.26;100.00;94904.88;5029043;28;20301;-53
2023/10/18 04:10:35;;;;;;;;;;;11.10;64.10;;;6.25;100.00;94903.31;5019073;28;20280;-49
2023/10/18 04:13:10;;;;;;;;;;;11.10;64.10;;;6.29;100.00;94905.44;5022514;28;20000;-50
2023/10/18 04:15:37;;;;;;;;;;;11.10;64.10;;;6.26;100.00;94906.75;5029240;28;19913;-53
2023/10/18 04:20:37;;;;;;;;;;;11.10;64.10;;;6.19;100.00;94898.22;5019818;28;19996;-51
2023/10/18 04:23:14;;;;;;;;;;;11.10;64.10;;;6.21;100.00;94893.50;5027393;28;19938;-51
2023/10/18 04:25:42;;;;;;;;;;;11.00;64.00;;;6.19;100.00;94885.81;5024959;28;19915;-51
2023/10/18 04:28:09;;;;;;;;;;;11.00;64.10;;;6.21;100.00;94885.56;5024171;28;19963;-53
2023/10/18 04:30:38;;;;;;;;;;;11.00;64.10;;;6.10;100.00;94879.38;5026101;28;19909;-49
2023/10/18 04:33:24;;;;;;;;;;;11.00;64.20;;;6.13;100.00;94875.44;5024149;28;19913;-46
2023/10/18 04:35:55;;;;;;;;;;;11.00;64.10;;;6.17;100.00;94869.41;5025217;28;20014;-51
2023/10/18 04:38:22;;;;;;;;;;;11.00;64.10;;;6.17;100.00;94868.59;5027688;28;19919;-50
2023/10/18 04:43:32;;;;;;;;;;;11.00;64.20;;;6.15;100.00;94855.63;5029414;28;20014;-49
2023/10/18 04:46:00;;;;;;;;;;;11.00;64.20;;;6.16;100.00;94846.63;5028745;28;20318;-47
2023/10/18 04:51:26;;;;;;;;;;;11.00;64.30;;;6.21;100.00;94844.03;5022422;28;20326;-46
2023/10/18 04:54:01;;;;;;;;;;;11.00;64.40;;;6.12;100.00;94835.00;5023852;28;20442;-46
2023/10/18 04:56:42;;;;;;;;;;;11.00;64.40;;;6.16;100.00;94841.34;5029788;28;20335;-47
2023/10/18 04:59:11;;;;;;;;;;;11.00;64.40;;;6.15;100.00;94834.47;5022127;28;19971;-46
2023/10/18 05:01:49;;;;;;;;;;;11.00;64.40;;;6.16;100.00;94835.28;5024026;28;19916;-48
2023/10/18 05:04:18;;;;;;;;;;;11.00;64.40;;;6.12;100.00;94835.00;5033175;28;20015;-49
2023/10/18 05:06:54;;;;;;;;;;;11.00;64.40;;;6.18;100.00;94828.69;5030917;28;19916;-47
2023/10/18 05:09:34;;;;;;;;;;;11.00;64.50;;;6.23;100.00;94825.25;5016997;28;19941;-47
2023/10/18 05:14:50;;;;;;;;;;;11.00;64.50;;;6.23;100.00;94823.41;5026067;28;20280;-48
2023/10/18 05:17:23;;;;;;;;;;;11.00;64.60;;;6.15;100.00;94815.97;5026044;28;19917;-47
2023/10/18 05:19:56;;;;;;;;;;;11.00;64.60;;;6.18;100.00;94818.09;5024902;28;20393;-47
2023/10/18 05:22:28;;;;;;;;;;;11.00;64.60;;;6.20;100.00;94815.97;5028900;28;19909;-48
2023/10/18 05:27:46;;;;;;;;;;;11.00;64.60;;;6.16;100.00;94811.47;5030586;28;19915;-50
2023/10/18 05:30:15;;;;;;;;;;;11.00;64.60;;;6.15;100.00;94810.69;5015083;28;20299;-49
2023/10/18 05:35:43;;;;;;;;;;;11.00;64.60;;;6.29;100.00;94800.44;4987769;28;20346;-47
2023/10/18 05:43:13;;;;;;;;;;;11.10;64.80;;;6.24;100.00;94801.22;5017368;28;20020;-49
2023/10/18 05:45:42;;;;;;;;;;;11.10;64.70;;;6.31;100.00;94795.69;5020504;28;19916;-47
2023/10/18 05:48:17;;;;;;;;;;;11.10;64.70;;;6.25;100.00;94788.78;5021021;28;19956;-47
2023/10/18 05:50:56;;;;;;;;;;;11.10;64.70;;;6.28;100.00;94795.41;5024150;28;20439;-48
2023/10/18 05:53:28;;;;;;;;;;;11.10;64.70;;;6.22;100.00;94790.09;5017492;28;19948;-47
2023/10/18 05:55:55;;;;;;;;;;;11.10;64.70;;;6.20;100.00;94794.03;5023242;28;19913;-49
2023/10/18 05:58:28;;;;;;;;;;;11.10;64.70;;;6.25;100.00;94792.22;5022709;28;20063;-48
2023/10/18 06:00:57;;;;;;;;;;;11.10;64.70;;;6.31;100.00;94789.63;5018504;28;19909;-49
2023/10/18 06:03:26;;;;;;;;;;;11.10;64.70;;;6.31;100.00;94798.34;5018532;28;19909;-50
2023/10/18 06:05:57;;;;;;;;;;;11.10;64.70;;;6.37;100.00;94822.97;5020752;28;19916;-50
2023/10/18 06:08:24;;;;;;;;;;;11.10;64.70;;;6.32;100.00;94818.44;5026973;28;19908;-50
2023/10/18 06:11:20;;;;;;;;;;;11.20;64.70;;;6.31;100.00;94797.53;5030592;28;19909;-53
2023/10/18 06:13:46;;;;;;;;;;;11.20;64.70;;;6.34;100.00;94799.69;5024599;28;20015;-51
2023/10/18 06:16:29;;;;;;;;;;;11.20;64.70;;;6.38;100.00;94819.28;5018981;28;20032;-52
2023/10/18 06:18:59;;;;;;;;;;;11.20;64.70;;;6.45;100.00;94827.75;5026700;28;19986;-51
2023/10/18 06:21:25;;;;;;;;;;;11.30;65.60;;;6.43;100.00;94809.50;5018673;28;19917;-51
2023/10/18 06:23:57;;;;;;;;;;;11.30;64.70;;;6.35;100.00;94796.75;5020234;28;19951;-52
2023/10/18 06:26:28;;;;;;;;;;;11.30;64.70;;;6.32;100.00;94801.78;5027750;28;19975;-54
2023/10/18 06:29:08;;;;;;;;;;;11.30;64.60;;;6.23;100.00;94798.81;5020854;28;20012;-53
2023/10/18 06:31:40;;;;;;;;;;;11.30;64.60;;;6.31;100.00;94802.84;5031374;28;19909;-52
2023/10/18 06:34:10;;;;;;;;;;;11.30;64.50;;;6.38;100.00;94804.19;5028211;28;19912;-51
2023/10/18 06:36:39;;;;;;;;;;;11.30;64.60;;;6.38;100.00;94800.75;5022150;28;19959;-52
2023/10/18 06:39:06;;;;;;;;;;;11.30;64.60;;;6.36;100.00;94806.31;5016390;28;19920;-54
2023/10/18 06:41:32;;;;;;;;;;;11.30;64.60;;;6.40;100.00;94809.25;5020130;28;19954;-53
2023/10/18 06:44:00;;;;;;;;;;;11.30;64.60;;;6.42;100.00;94810.56;5030955;28;20354;-50
2023/10/18 06:46:26;;;;;;;;;;;11.30;64.60;;;6.40;100.00;94811.88;5019617;28;19923;-49
2023/10/18 06:48:55;;;;;;;;;;;11.40;64.60;;;6.44;100.00;94803.16;5023140;28;19908;-48
2023/10/18 06:51:43;;;;;;;;;;;11.40;64.60;;;6.44;100.00;94792.59;5021070;28;19955;-48
2023/10/18 06:54:13;;;;;;;;;;;11.40;64.60;;;6.46;100.00;94795.78;5016002;28;19955;-48
2023/10/18 06:56:40;;;;;;;;;;;11.50;64.70;;;6.43;100.00;94792.84;5025488;28;19912;-50
2023/10/18 06:59:07;;;;;;;;;;;11.50;64.60;;;6.36;100.00;94784.31;5018865;28;19947;-48
2023/10/18 07:01:53;;;;;;;;;;;11.50;64.60;;;6.37;100.00;94797.31;5023886;28;19955;-49
2023/10/18 07:04:19;;;;;;;;;;;11.60;64.60;;;6.42;100.00;94804.47;5026312;28;19954;-48
2023/10/18 07:06:46;;;;;;;;;;;11.60;64.50;;;6.46;100.00;94814.28;5019542;28;19912;-48
2023/10/18 07:09:31;;;;;;;;;;;11.60;64.50;;;6.54;100.00;94826.22;5014906;28;19909;-52
2023/10/18 07:12:03;;;;;;;;;;;11.70;64.40;;;6.64;100.00;94818.34;5023050;28;19912;-49
2023/10/18 07:14:31;;;;;;;;;;;11.80;64.50;;;6.66;100.00;94796.91;5020502;28;19935;-48
2023/10/18 07:17:04;;;;;;;;;;;11.90;64.40;;;6.65;100.00;94801.41;5025141;28;19909;-52
2023/10/18 07:19:33;;;;;;;;;;;11.90;64.30;;;6.65;100.00;94793.47;5023986;28;19909;-52
2023/10/18 07:22:06;;;;;;;;;;;12.00;64.20;;;6.64;100.00;94780.47;5015701;28;20368;-51
2023/10/18 07:24:34;;;;;;;;;;;12.10;64.10;;;6.67;100.00;94774.69;5021778;28;20275;-50
2023/10/18 07:27:03;;;;;;;;;;;12.10;64.00;;;6.63;100.00;94757.72;5017737;28;19968;-53
2023/10/18 07:29:31;;;;;;;;;;;12.10;64.00;;;6.60;100.00;94766.97;5026757;28;19909;-53
2023/10/18 07:31:59;;;;;;;;;;;12.20;63.90;;;6.66;100.00;94760.66;5027114;28;19962;-53
2023/10/18 07:34:28;;;;;;;;;;;12.20;63.90;;;6.67;100.00;94756.94;5020744;28;19927;-52
2023/10/18 07:36:55;;;;;;;;;;;12.20;63.90;;;6.56;100.00;94755.34;5024242;28;19916;-48
2023/10/18 07:39:27;;;;;;;;;;;12.20;63.80;;;6.54;100.00;94746.06;5026245;28;19974;-52
2023/10/18 07:41:55;;;;;;;;;;;12.20;63.80;;;6.56;100.00;94738.66;5016392;28;19995;-48
2023/10/18 07:44:20;;;;;;;;;;;12.10;63.70;;;6.56;100.00;94741.31;5018484;28;19913;-53
2023/10/18 07:46:46;;;;;;;;;;;12.10;63.80;;;6.56;100.00;94742.09;5024053;28;19909;-53
2023/10/18 07:49:14;;;;;;;;;;;12.20;63.90;;;6.62;100.00;94735.78;5031482;28;19913;-51
2023/10/18 07:51:55;;;;;;;;;;;12.20;63.90;;;6.67;100.00;94738.41;5028145;28;19908;-50
2023/10/18 07:54:22;;;;;;;;;;;12.20;63.90;;;6.63;100.00;94737.34;5025532;28;19917;-55
2023/10/18 07:56:49;;;;;;;;;;;12.20;63.90;;;6.69;100.00;94738.16;5033244;28;19912;-48
2023/10/18 07:59:29;;;;;;;;;;;12.30;63.90;;;6.76;100.00;94744.00;5028759;28;19921;-53
2023/10/18 08:02:12;;;;;;;;;;;12.30;63.80;;;6.81;100.00;94733.44;5020603;28;19989;-51
2023/10/18 08:04:42;;;;;;;;;;;12.40;63.90;;;6.78;100.00;94727.88;5024669;28;20431;-54
2023/10/18 08:07:11;;;;;;;;;;;12.40;63.70;;;6.82;100.00;94716.50;5030826;28;19909;-50
2023/10/18 08:09:41;;;;;;;;;;;12.50;63.80;;;6.73;100.00;94710.91;5032259;28;20299;-49
2023/10/18 08:12:19;;;;;;;;;;;12.60;63.60;;;6.79;100.00;94726.81;5032762;28;19908;-48
2023/10/18 08:14:49;;;;;;;;;;;12.60;63.50;;;6.90;100.00;94739.81;5019336;28;19917;-49
2023/10/18 08:17:33;;;;;;;;;;;12.60;63.50;;;6.91;100.00;94727.38;5014859;28;19913;-47
2023/10/18 08:22:51;;;;;;;;;;;12.60;63.40;;;6.78;100.00;94714.66;5019281;28;19920;-47
2023/10/18 08:25:24;;;;;;;;;;;12.60;63.40;;;6.90;100.00;94720.50;5018771;28;19934;-49
2023/10/18 08:27:51;;;;;;;;;;;12.60;63.40;;;6.96;100.00;94730.03;5028794;28;19963;-50
2023/10/18 08:32:51;;;;;;;;;;;12.70;63.50;;;7.06;100.00;94718.66;5033251;28;19909;-47
2023/10/18 08:35:20;;;;;;;;;;;12.80;63.40;;;7.12;100.00;94713.13;5033028;28;20058;-46
2023/10/18 08:37:46;;;;;;;;;;;12.90;63.30;;;7.18;100.00;94719.22;5031890;28;19954;-46
2023/10/18 08:40:27;;;;;;;;;;;12.90;64.00;;;7.27;100.00;94711.50;5033039;28;19916;-50
2023/10/18 08:43:08;;;;;;;;;;;13.00;63.10;;;7.14;100.00;94700.38;5032416;28;20371;-47
2023/10/18 08:45:45;;;;;;;;;;;13.10;62.90;;;7.17;100.00;94697.22;5031253;28;19920;-53
2023/10/18 08:48:50;;;;;;;;;;;13.20;62.80;;;7.24;100.00;94696.16;5028924;28;19967;-52
2023/10/18 08:51:07;;;;;;;;;;;13.20;62.60;;;7.33;100.00;94692.72;5031095;28;19913;-47
2023/10/18 08:53:41;;;;;;;;;;;13.30;62.60;;;7.38;100.00;94689.28;5032827;28;19920;-47
2023/10/18 08:56:08;;;;;;;;;;;13.30;62.60;;;7.46;100.00;94691.41;5031656;28;19912;-47
2023/10/18 08:58:39;;;;;;;;;;;13.30;62.50;;;7.46;100.00;94680.81;5032751;28;19970;-47
2023/10/18 09:01:06;;;;;;;;;;;13.40;62.50;;;7.49;100.00;94679.44;5032298;28;20321;-46
2023/10/18 09:03:32;;;;;;;;;;;13.40;62.40;;;7.49;100.00;94677.63;5031586;28;20399;-49
2023/10/18 09:06:05;;;;;;;;;;;13.40;62.30;;;7.55;100.00;94673.09;5032715;28;19951;-51
2023/10/18 09:08:41;;;;;;;;;;;13.50;62.20;;;7.55;100.00;94678.38;5024938;28;19913;-52
2023/10/18 09:11:23;;;;;;;;;;;13.60;62.20;;;7.62;100.00;94681.56;5025645;28;19912;-50
2023/10/18 09:14:08;;;;;;;;;;;13.60;62.00;;;7.62;100.00;94678.94;5028600;28;19917;-51
2023/10/18 09:16:43;;;;;;;;;;;13.60;61.90;;;7.62;100.00;94677.06;5021164;28;19920;-51
2023/10/18 09:19:12;;;;;;;;;;;13.60;61.80;;;7.66;100.00;94674.66;5029161;28;19935;-49
2023/10/18 09:21:59;;;;;;;;;;;13.60;61.80;;;7.60;100.00;94684.47;5032861;28;19948;-47
2023/10/18 09:24:30;;;;;;;;;;;13.50;61.80;;;7.63;100.00;94697.19;5031542;28;19928;-47
2023/10/18 09:27:00;;;;;;;;;;;13.40;61.90;;;7.75;100.00;94694.28;5026913;28;19923;-49
2023/10/18 09:29:27;;;;;;;;;;;13.50;62.00;;;7.74;100.00;94690.03;5033157;28;19919;-48
2023/10/18 09:32:32;;;;;;;;;;;13.40;62.00;;;7.78;100.00;94690.31;5031571;28;19908;-47
2023/10/18 09:35:10;;;;;;;;;;;13.40;62.10;;;7.77;100.00;94678.91;5028621;28;19950;-50
2023/10/18 09:37:36;;;;;;;;;;;13.50;62.30;;;7.86;100.00;94676.47;5029573;28;19927;-50
2023/10/18 09:40:06;;;;;;;;;;;13.50;62.20;;;7.88;100.00;94677.81;5032090;28;19916;-47
2023/10/18 09:42:31;;;;;;;;;;;13.60;62.10;;;7.86;100.00;94690.53;5031397;28;19985;-48
2023/10/18 09:44:59;;;;;;;;;;;13.60;62.00;;;7.86;100.00;94690.53;5016531;28;19975;-46
2023/10/18 09:47:28;;;;;;;;;;;13.70;62.00;;;7.90;100.00;94690.81;5032215;28;20033;-47
2023/10/18 09:50:05;;;;;;;;;;;13.70;61.80;;;7.97;100.00;94682.56;5030892;28;19909;-46
2023/10/18 09:52:47;;;;;;;;;;;13.80;61.80;;;7.98;100.00;94684.94;5032146;28;20003;-49
2023/10/18 09:55:20;;;;;;;;;;;13.80;61.70;;;8.09;100.00;94686.50;5022288;28;19919;-49
2023/10/18 09:57:59;;;;;;;;;;;14.00;61.60;;;8.24;100.00;94676.88;5030873;28;19909;-47
2023/10/18 10:00:29;;;;;;;;;;;14.20;61.50;;;8.35;100.00;94684.53;5029660;28;20355;-47
2023/10/18 10:02:57;;;;;;;;;;;14.40;61.30;;;8.48;100.00;94688.50;5032447;28;19938;-47
2023/10/18 10:05:25;;;;;;;;;;;14.50;61.10;;;8.52;100.00;94681.59;5025942;28;20291;-47
2023/10/18 10:07:56;;;;;;;;;;;14.60;60.90;;;8.61;100.00;94683.66;5025057;28;19916;-50
2023/10/18 10:10:43;;;;;;;;;;;14.70;60.70;;;8.71;100.00;94681.75;5025536;28;19995;-48
2023/10/18 10:13:19;;;;;;;;;;;14.70;60.60;;;8.66;100.00;94654.44;5023819;28;20326;-47
2023/10/18 10:16:08;;;;;;;;;;;14.70;60.50;;;8.42;100.00;94652.44;5020913;28;19923;-50
2023/10/18 10:18:43;;;;;;;;;;;14.70;60.30;;;8.44;100.00;94638.91;5017424;28;19952;-50
2023/10/18 10:21:12;;;;;;;;;;;14.60;60.20;;;8.40;100.00;94635.19;5025149;28;19935;-46
2023/10/18 10:23:38;;;;;;;;;;;14.60;60.20;;;8.40;100.00;94638.66;5014570;28;20345;-48
2023/10/18 10:26:11;;;;;;;;;;;14.50;60.20;;;8.48;100.00;94626.66;5029646;28;19919;-47
2023/10/18 10:31:51;;;;;;;;;;;14.70;60.00;;;8.52;100.00;94639.13;5031105;28;19936;-49
2023/10/18 10:34:32;;;;;;;;;;;14.90;59.90;;;8.62;100.00;94630.31;5025470;28;19962;-47
2023/10/18 10:37:08;;;;;;;;;;;15.00;59.80;;;8.65;100.00;94628.94;5027365;28;19908;-48
2023/10/18 10:39:44;;;;;;;;;;;15.10;59.60;;;8.75;100.00;94624.38;5027815;28;20440;-47
2023/10/18 10:42:41;;;;;;;;;;;15.20;59.50;;;8.80;100.00;94632.28;5025491;28;19917;-47
2023/10/18 10:47:43;;;;;;;;;;;15.30;59.30;;;8.96;100.00;94635.66;5029801;28;20050;-48
2023/10/18 10:50:10;;;;;;;;;;;15.30;59.20;;;8.92;100.00;94629.28;5030200;28;20427;-51
2023/10/18 10:52:41;;;;;;;;;;;15.30;59.30;;;8.91;100.00;94625.06;5030015;28;19946;-50
2023/10/18 10:55:23;;;;;;;;;;;15.20;59.20;;;8.89;100.00;94621.88;5030259;28;19913;-50
2023/10/18 10:57:52;;;;;;;;;;;15.10;59.20;;;8.79;100.00;94614.00;5030885;28;19916;-49
2023/10/18 11:00:37;;;;;;;;;;;15.10;59.20;;;8.88;100.00;94617.66;5029060;28;20420;-47
2023/10/18 11:03:30;;;;;;;;;;;15.00;59.30;;;9.03;100.00;94617.53;5030994;28;19909;-48
2023/10/18 11:05:58;;;;;;;;;;;15.10;59.40;;;9.06;100.00;94607.41;5031424;28;19921;-51
2023/10/18 11:08:28;;;;;;;;;;;15.10;59.40;;;8.95;100.00;94599.53;5030463;28;19909;-46
2023/10/18 11:10:57;;;;;;;;;;;15.20;59.20;;;8.83;100.00;94588.47;5034994;28;19919;-52
2023/10/18 11:13:25;;;;;;;;;;;15.30;59.10;;;8.53;100.00;94574.34;5028829;28;20371;-52
2023/10/18 11:15:54;;;;;;;;;;;15.40;58.80;;;8.88;100.00;94566.41;5034077;28;19923;-47
2023/10/18 11:18:20;;;;;;;;;;;15.50;58.80;;;8.92;100.00;94554.13;5033762;28;20600;-50
2023/10/18 11:20:58;;;;;;;;;;;15.60;58.70;;;9.06;100.00;94560.41;5035152;28;19909;-47
2023/10/18 11:23:27;;;;;;;;;;;15.60;58.60;;;9.08;100.00;94554.78;5031973;28;19955;-48
2023/10/18 11:25:59;;;;;;;;;;;15.60;58.60;;;9.18;100.00;94538.75;5028582;28;19908;-49
2023/10/18 11:28:29;;;;;;;;;;;15.60;58.70;;;9.19;100.00;94538.50;5025824;28;20008;-49
2023/10/18 11:30:57;;;;;;;;;;;15.60;58.70;;;9.15;100.00;94521.53;5034391;28;20007;-47
2023/10/18 11:34:21;;;;;;;;;;;15.50;58.70;;;9.19;100.00;94525.22;5033592;28;19966;-48
2023/10/18 11:36:21;;;;;;;;;;;15.50;58.70;;;9.12;100.00;94522.09;5036759;28;20380;-48
2023/10/18 11:41:34;;;;;;;;;;;15.40;58.90;;;9.41;100.00;94540.66;5034974;28;20001;-48
2023/10/18 11:44:08;;;;;;;;;;;15.40;58.90;;;9.43;100.00;94527.88;5025814;28;19912;-49
2023/10/18 11:46:58;;;;;;;;;;;15.30;58.90;;;9.40;100.00;94527.63;5034554;28;19978;-47
2023/10/18 11:49:41;;;;;;;;;;;15.40;58.90;;;9.42;100.00;94536.91;5033210;28;20015;-47
2023/10/18 11:52:22;;;;;;;;;;;15.40;58.80;;;9.51;100.00;94526.47;5034625;28;20275;-46
2023/10/18 11:54:52;;;;;;;;;;;15.40;58.80;;;9.43;100.00;94522.56;5031659;28;19974;-49
2023/10/18 11:57:39;;;;;;;;;;;15.40;58.70;;;9.48;100.00;94521.72;5029824;28;20375;-47
2023/10/18 12:00:28;;;;;;;;;;;15.50;58.50;;;9.60;100.00;94519.44;5026561;28;20151;-47
2023/10/18 12:02:55;;;;;;;;;;;15.50;58.50;;;9.66;100.00;94518.31;5031882;28;19913;-49
2023/10/18 12:05:27;;;;;;;;;;;15.50;58.50;;;9.73;100.00;94513.44;5034180;28;19913;-49
2023/10/18 12:07:57;;;;;;;;;;;15.50;58.50;;;9.61;100.00;94513.06;5033135;28;20358;-47
2023/10/18 12:10:26;;;;;;;;;;;15.50;58.50;;;9.67;100.00;94516.44;5028467;28;19909;-52
2023/10/18 12:12:52;;;;;;;;;;;15.50;58.50;;;9.65;100.00;94519.41;5033285;28;20380;-47
2023/10/18 12:15:19;;;;;;;;;;;15.50;58.40;;;9.60;100.00;94511.47;5033968;28;20051;-47
2023/10/18 12:17:46;;;;;;;;;;;15.50;58.40;;;9.59;100.00;94511.75;5032361;28;19909;-48
2023/10/18 12:20:13;;;;;;;;;;;15.50;58.20;;;9.66;100.00;94498.91;5031801;28;19999;-46
2023/10/18 12:22:42;;;;;;;;;;;15.60;58.20;;;9.71;100.00;94497.00;5032928;28;19909;-46
2023/10/18 12:25:09;;;;;;;;;;;15.60;58.20;;;9.81;100.00;94482.78;5028476;28;19908;-51